Time;durP1;ratioP1;P1;durP2;ratioP2;P2;SDS_P1;SDS_P2;PMS_P1;PMS_P2;Temp;Humidity;BMP_temperature;BMP_pressure;BME280_temperature;BME280_humidity;BME280_pressure;Samples;Min_cycle;Max_cycle;Signal;HPM_P1;HPM_P2
2022/01/12 00:02:41;;;;;;;18.27;6.40;;;;;;;;;;5091899;28;20032;-71
2022/01/12 00:05:46;;;;;;;14.27;5.88;;;;;;;;;;5067962;28;20043;-71
2022/01/12 00:08:50;;;;;;;15.38;5.72;;;;;;;;;;5079569;28;20039;-71
2022/01/12 00:11:54;;;;;;;22.50;7.32;;;;;;;;;;5091871;28;20044;-71
2022/01/12 00:14:58;;;;;;;19.38;6.43;;;;;;;;;;5091789;28;20032;-71
2022/01/12 00:18:03;;;;;;;14.18;5.78;;;;;;;;;;5079339;28;20053;-71
2022/01/12 00:21:07;;;;;;;18.10;6.07;;;;;;;;;;5091813;28;20122;-71
2022/01/12 00:24:11;;;;;;;15.43;6.78;;;;;;;;;;5079165;28;20054;-71
2022/01/12 00:34:03;;;;;;;22.20;6.70;;;;;;;;;;5091701;28;20024;-71
2022/01/12 00:37:07;;;;;;;13.57;5.85;;;;;;;;;;5077834;28;20032;-71
2022/01/12 00:40:12;;;;;;;18.67;5.65;;;;;;;;;;5091681;28;20039;-72
2022/01/12 00:43:16;;;;;;;15.35;6.28;;;;;;;;;;5091544;28;20039;-71
2022/01/12 00:46:20;;;;;;;21.23;7.95;;;;;;;;;;5067276;28;20383;-71
2022/01/12 00:49:25;;;;;;;20.65;5.55;;;;;;;;;;5079010;28;20040;-71
2022/01/12 00:52:29;;;;;;;14.60;5.80;;;;;;;;;;5067335;28;20497;-71
2022/01/12 00:55:34;;;;;;;17.85;5.90;;;;;;;;;;5078853;28;20036;-71
2022/01/12 00:58:38;;;;;;;16.38;5.95;;;;;;;;;;5078967;28;20032;-71
2022/01/12 01:01:43;;;;;;;16.58;6.20;;;;;;;;;;5091249;28;20036;-71
2022/01/12 01:04:47;;;;;;;14.60;6.00;;;;;;;;;;5078768;28;20043;-71
2022/01/12 01:07:52;;;;;;;14.27;5.95;;;;;;;;;;5066993;28;20048;-71
2022/01/12 01:10:57;;;;;;;14.85;5.28;;;;;;;;;;5078631;28;20510;-71
2022/01/12 01:14:13;;;;;;;20.50;6.03;;;;;;;;;;5078479;28;20032;-71
2022/01/12 01:27:28;;;;;;;17.02;5.63;;;;;;;;;;5090554;28;20044;-72
2022/01/12 01:30:37;;;;;;;16.80;6.35;;;;;;;;;;5078487;28;20407;-71
2022/01/12 01:33:43;;;;;;;15.73;5.93;;;;;;;;;;5078530;28;20047;-71
2022/01/12 01:36:51;;;;;;;18.92;5.72;;;;;;;;;;5066906;28;20387;-71
2022/01/12 01:39:57;;;;;;;14.02;5.47;;;;;;;;;;5078569;28;20407;-71
2022/01/12 01:56:19;;;;;;;18.73;5.50;;;;;;;;;;5081854;28;20036;-69
2022/01/12 01:59:23;;;;;;;14.77;5.03;;;;;;;;;;5081853;28;20040;-72
2022/01/12 02:02:28;;;;;;;15.13;4.78;;;;;;;;;;5081976;28;20035;-72
2022/01/12 02:05:33;;;;;;;12.15;4.15;;;;;;;;;;5081711;28;20047;-71
2022/01/12 02:08:37;;;;;;;13.60;5.53;;;;;;;;;;5094469;28;20538;-71
2022/01/12 02:12:04;;;;;;;15.05;5.75;;;;;;;;;;5096484;28;20032;-71
2022/01/12 02:15:14;;;;;;;28.50;5.43;;;;;;;;;;5081556;28;20395;-69
2022/01/12 02:35:33;;;;;;;15.50;6.50;;;;;;;;;;5068946;28;20043;-71
2022/01/12 02:41:41;;;;;;;9.75;4.85;;;;;;;;;;5093802;28;20051;-71
2022/01/12 02:51:36;;;;;;;11.90;5.57;;;;;;;;;;5081012;28;20036;-72
2022/01/12 02:54:40;;;;;;;10.93;5.15;;;;;;;;;;5081074;28;20226;-71
2022/01/12 02:57:44;;;;;;;11.43;5.00;;;;;;;;;;5080935;28;20028;-71
2022/01/12 03:04:07;;;;;;;13.48;5.80;;;;;;;;;;5080816;28;20049;-71
2022/01/12 03:07:16;;;;;;;10.57;4.85;;;;;;;;;;5069494;28;20044;-71
2022/01/12 03:10:21;;;;;;;10.48;4.85;;;;;;;;;;5080735;28;20058;-71
2022/01/12 03:13:26;;;;;;;11.60;4.63;;;;;;;;;;5080893;28;20422;-71
2022/01/12 03:16:31;;;;;;;11.48;4.85;;;;;;;;;;5080322;28;20028;-72
2022/01/12 03:19:42;;;;;;;10.68;5.05;;;;;;;;;;5080651;28;20039;-71
2022/01/12 03:22:46;;;;;;;9.80;4.68;;;;;;;;;;5069050;28;20039;-71
2022/01/12 03:25:50;;;;;;;14.50;4.85;;;;;;;;;;5080472;28;20040;-71
2022/01/12 03:28:55;;;;;;;8.85;4.28;;;;;;;;;;5080360;28;20040;-71
2022/01/12 03:32:02;;;;;;;10.60;4.40;;;;;;;;;;5080257;28;20032;-71
2022/01/12 03:35:22;;;;;;;12.15;5.22;;;;;;;;;;5092700;28;20066;-71
2022/01/12 03:38:26;;;;;;;11.07;4.90;;;;;;;;;;5092573;28;20086;-71
2022/01/12 03:41:32;;;;;;;7.85;3.92;;;;;;;;;;5079989;28;20388;-71
2022/01/12 03:44:36;;;;;;;8.95;3.72;;;;;;;;;;5079755;28;20032;-71
2022/01/12 03:47:42;;;;;;;8.95;4.20;;;;;;;;;;5079451;28;20044;-71
2022/01/12 03:50:48;;;;;;;12.07;5.35;;;;;;;;;;5092013;28;20032;-71
2022/01/12 03:53:52;;;;;;;10.70;5.15;;;;;;;;;;5079858;28;20051;-71
2022/01/12 03:56:59;;;;;;;10.90;4.65;;;;;;;;;;5068119;28;20040;-69
2022/01/12 04:00:05;;;;;;;11.57;4.63;;;;;;;;;;5079816;28;20053;-71
2022/01/12 04:03:18;;;;;;;11.75;5.05;;;;;;;;;;5092019;28;20375;-69
2022/01/12 04:09:45;;;;;;;15.52;5.30;;;;;;;;;;5079265;28;20530;-71
2022/01/12 04:12:50;;;;;;;11.48;5.47;;;;;;;;;;5091849;28;20032;-71
2022/01/12 04:15:56;;;;;;;10.10;4.72;;;;;;;;;;5079383;28;20036;-71
2022/01/12 04:19:00;;;;;;;14.07;5.07;;;;;;;;;;5067898;28;20032;-71
2022/01/12 04:23:16;;;;;;;14.82;5.15;;;;;;;;;;5079164;28;20044;-71
2022/01/12 04:25:32;;;;;;;12.38;5.00;;;;;;;;;;5091692;28;20040;-69
2022/01/12 04:28:38;;;;;;;11.60;4.80;;;;;;;;;;5079245;28;20052;-70
2022/01/12 04:31:42;;;;;;;11.98;4.50;;;;;;;;;;5067605;28;20032;-71
2022/01/12 04:34:46;;;;;;;13.13;4.80;;;;;;;;;;5067687;28;20040;-69
2022/01/12 04:37:51;;;;;;;14.15;4.57;;;;;;;;;;5078694;28;20051;-69
2022/01/12 04:40:56;;;;;;;14.57;4.72;;;;;;;;;;5091429;28;20054;-69
2022/01/12 04:44:02;;;;;;;11.68;4.60;;;;;;;;;;5067453;28;20040;-71
2022/01/12 04:47:15;;;;;;;12.18;3.92;;;;;;;;;;5078591;28;20044;-69
2022/01/12 04:50:20;;;;;;;10.88;4.55;;;;;;;;;;5067273;28;20038;-69
2022/01/12 04:53:24;;;;;;;10.32;4.28;;;;;;;;;;5067177;28;20036;-69
2022/01/12 04:56:30;;;;;;;13.55;4.55;;;;;;;;;;5067382;28;20031;-69
2022/01/12 04:59:40;;;;;;;10.38;4.65;;;;;;;;;;5067387;28;20039;-69
2022/01/12 05:13:13;;;;;;;14.75;4.60;;;;;;;;;;5078439;28;20506;-69
2022/01/12 05:16:12;;;;;;;11.55;4.50;;;;;;;;;;5078474;28;20043;-69
2022/01/12 05:19:17;;;;;;;13.95;4.22;;;;;;;;;;5078506;28;20391;-69
2022/01/12 05:22:21;;;;;;;11.82;4.30;;;;;;;;;;5078693;28;20051;-69
2022/01/12 05:25:25;;;;;;;7.45;3.97;;;;;;;;;;5082491;28;20032;-69
2022/01/12 05:28:31;;;;;;;9.60;4.78;;;;;;;;;;5095106;28;20048;-69
2022/01/12 05:31:35;;;;;;;13.25;4.30;;;;;;;;;;5071221;28;20357;-69
2022/01/12 05:34:41;;;;;;;11.18;4.63;;;;;;;;;;5082362;28;20047;-69
2022/01/12 05:37:46;;;;;;;11.32;4.53;;;;;;;;;;5081920;28;20067;-69
2022/01/12 05:40:53;;;;;;;11.05;4.03;;;;;;;;;;5094834;28;20048;-69
2022/01/12 05:44:00;;;;;;;9.57;4.45;;;;;;;;;;5082153;28;20365;-69
2022/01/12 05:47:05;;;;;;;11.43;4.20;;;;;;;;;;5081785;28;20036;-69
2022/01/12 05:50:10;;;;;;;10.02;4.03;;;;;;;;;;5082229;28;20036;-69
2022/01/12 05:53:15;;;;;;;11.73;4.60;;;;;;;;;;5094661;28;20043;-69
2022/01/12 05:56:22;;;;;;;11.88;5.15;;;;;;;;;;5070728;28;20032;-69
2022/01/12 05:59:27;;;;;;;13.65;4.78;;;;;;;;;;5082018;28;20036;-69
2022/01/12 06:02:33;;;;;;;11.95;4.60;;;;;;;;;;5082096;28;20042;-69
2022/01/12 06:05:38;;;;;;;13.80;4.60;;;;;;;;;;5081941;28;20510;-69
2022/01/12 06:08:42;;;;;;;11.95;4.40;;;;;;;;;;5094503;28;20036;-69
2022/01/12 06:11:47;;;;;;;11.88;4.40;;;;;;;;;;5070252;28;20053;-69
2022/01/12 06:14:51;;;;;;;9.68;4.07;;;;;;;;;;5070141;28;20040;-69
2022/01/12 06:17:56;;;;;;;7.85;4.60;;;;;;;;;;5081652;28;20044;-69
2022/01/12 06:21:00;;;;;;;13.88;4.63;;;;;;;;;;5081434;28;20040;-69
2022/01/12 06:24:28;;;;;;;8.90;3.95;;;;;;;;;;5081311;28;20411;-70
2022/01/12 06:27:34;;;;;;;14.10;4.60;;;;;;;;;;5080882;28;20044;-69
2022/01/12 06:34:01;;;;;;;13.10;4.90;;;;;;;;;;5093909;28;20055;-69
2022/01/12 06:37:06;;;;;;;14.45;5.22;;;;;;;;;;5080811;28;20041;-69
2022/01/12 06:40:10;;;;;;;11.65;3.92;;;;;;;;;;5081368;28;20058;-69
2022/01/12 06:43:15;;;;;;;11.43;3.85;;;;;;;;;;5081239;28;20046;-79
2022/01/12 06:46:25;;;;;;;13.07;4.45;;;;;;;;;;5069344;28;20039;-76
2022/01/12 06:49:29;;;;;;;8.70;3.75;;;;;;;;;;5081771;28;20036;-77
2022/01/12 06:52:34;;;;;;;7.68;4.03;;;;;;;;;;5081171;28;20032;-77
2022/01/12 06:55:39;;;;;;;10.93;4.38;;;;;;;;;;5069663;28;20040;-75
2022/01/12 06:58:44;;;;;;;12.10;3.90;;;;;;;;;;5081123;28;20036;-74
2022/01/12 07:01:49;;;;;;;9.60;3.83;;;;;;;;;;5081290;28;20052;-72
2022/01/12 07:04:57;;;;;;;13.60;3.78;;;;;;;;;;5069377;28;20491;-74
2022/01/12 07:08:01;;;;;;;11.27;3.78;;;;;;;;;;5080548;28;20065;-72
2022/01/12 07:11:11;;;;;;;8.23;4.00;;;;;;;;;;5080736;28;20451;-75
2022/01/12 07:14:16;;;;;;;7.13;3.97;;;;;;;;;;5080730;28;20040;-73
2022/01/12 07:17:21;;;;;;;8.23;4.28;;;;;;;;;;5080339;28;20043;-72
2022/01/12 07:20:26;;;;;;;10.73;4.20;;;;;;;;;;5080475;28;20036;-73
2022/01/12 07:23:31;;;;;;;11.68;3.90;;;;;;;;;;5092755;28;20151;-73
2022/01/12 07:26:35;;;;;;;9.18;3.97;;;;;;;;;;5080191;28;20047;-73
2022/01/12 07:29:39;;;;;;;11.57;4.40;;;;;;;;;;5092605;28;20032;-75
2022/01/12 07:32:44;;;;;;;9.20;3.83;;;;;;;;;;5092710;28;20036;-71
2022/01/12 07:35:49;;;;;;;9.35;4.15;;;;;;;;;;5092438;28;20043;-75
2022/01/12 07:38:55;;;;;;;8.82;4.55;;;;;;;;;;5091869;28;20040;-76
2022/01/12 07:42:00;;;;;;;12.27;5.47;;;;;;;;;;5092537;28;20369;-74
2022/01/12 07:45:06;;;;;;;12.40;6.97;;;;;;;;;;5079347;28;20047;-73
2022/01/12 07:48:12;;;;;;;14.20;6.85;;;;;;;;;;5091564;28;20508;-81
2022/01/12 07:51:17;;;;;;;13.20;5.63;;;;;;;;;;5079691;28;20053;-76
2022/01/12 07:54:21;;;;;;;12.63;4.53;;;;;;;;;;5092084;28;20048;-78
2022/01/12 07:57:26;;;;;;;9.70;4.85;;;;;;;;;;5079893;28;20036;-74
2022/01/12 08:00:30;;;;;;;10.60;4.50;;;;;;;;;;5092157;28;20040;-73
2022/01/12 08:03:35;;;;;;;8.90;4.63;;;;;;;;;;5092091;28;20036;-74
2022/01/12 08:06:39;;;;;;;11.68;5.45;;;;;;;;;;5091571;28;20044;-74
2022/01/12 08:09:44;;;;;;;12.32;5.05;;;;;;;;;;5079365;28;20486;-74
2022/01/12 08:12:48;;;;;;;11.32;4.97;;;;;;;;;;5092354;28;20421;-72
2022/01/12 08:15:52;;;;;;;10.15;5.07;;;;;;;;;;5091673;28;20040;-72
2022/01/12 08:18:57;;;;;;;10.25;5.15;;;;;;;;;;5079367;28;20036;-77
2022/01/12 08:22:01;;;;;;;13.77;5.10;;;;;;;;;;5091767;28;20040;-73
2022/01/12 08:25:07;;;;;;;13.20;4.80;;;;;;;;;;5091906;28;20040;-75
2022/01/12 08:28:11;;;;;;;9.02;5.25;;;;;;;;;;5091569;28;20055;-73
2022/01/12 08:31:17;;;;;;;19.20;4.22;;;;;;;;;;5091411;28;20621;-72
2022/01/12 08:34:22;;;;;;;10.77;5.50;;;;;;;;;;5091101;28;20035;-74
2022/01/12 08:37:26;;;;;;;9.90;4.80;;;;;;;;;;5091502;28;20032;-74
2022/01/12 08:40:31;;;;;;;24.38;4.82;;;;;;;;;;5079033;28;20479;-75
2022/01/12 08:43:35;;;;;;;11.35;5.07;;;;;;;;;;5079311;28;20044;-73
2022/01/12 08:46:41;;;;;;;11.75;4.78;;;;;;;;;;5091222;28;20048;-72
2022/01/12 08:49:45;;;;;;;15.73;4.55;;;;;;;;;;5078977;28;20040;-81
2022/01/12 08:52:50;;;;;;;12.73;4.93;;;;;;;;;;5055942;28;20040;-76
2022/01/12 08:55:55;;;;;;;10.73;4.30;;;;;;;;;;5091246;28;20043;-78
2022/01/12 08:58:59;;;;;;;10.63;5.15;;;;;;;;;;5066621;28;20061;-75
2022/01/12 09:02:03;;;;;;;15.93;6.65;;;;;;;;;;5067299;28;20040;-76
2022/01/12 09:05:08;;;;;;;9.93;4.47;;;;;;;;;;5078878;28;20036;-73
2022/01/12 09:08:12;;;;;;;8.98;4.57;;;;;;;;;;5066973;28;20048;-78
2022/01/12 09:11:18;;;;;;;10.70;4.60;;;;;;;;;;5078714;28;20028;-72
2022/01/12 09:14:22;;;;;;;10.90;4.10;;;;;;;;;;5067362;28;20051;-75
2022/01/12 09:17:26;;;;;;;11.63;5.63;;;;;;;;;;5091102;28;20034;-74
2022/01/12 09:20:32;;;;;;;8.80;5.00;;;;;;;;;;5078603;28;20499;-77
2022/01/12 09:23:36;;;;;;;13.00;5.22;;;;;;;;;;5091093;28;20511;-82
2022/01/12 09:26:41;;;;;;;8.45;5.00;;;;;;;;;;5078004;28;20055;-76
2022/01/12 09:29:45;;;;;;;12.48;5.35;;;;;;;;;;5091269;28;20487;-79
2022/01/12 09:32:49;;;;;;;9.98;5.07;;;;;;;;;;5079243;28;20045;-83
2022/01/12 09:35:54;;;;;;;9.20;5.20;;;;;;;;;;5078409;28;20040;-75
2022/01/12 09:39:00;;;;;;;16.75;6.13;;;;;;;;;;5077785;28;20052;-72
2022/01/12 09:42:05;;;;;;;10.63;5.22;;;;;;;;;;5078476;28;20044;-71
2022/01/12 09:45:14;;;;;;;17.08;4.88;;;;;;;;;;5066564;28;20046;-72
2022/01/12 09:48:20;;;;;;;15.32;4.82;;;;;;;;;;5090481;28;20059;-72
2022/01/12 09:51:24;;;;;;;12.60;5.30;;;;;;;;;;5090619;28;20043;-71
2022/01/12 09:54:28;;;;;;;14.00;5.60;;;;;;;;;;5090648;28;20059;-72
2022/01/12 09:57:32;;;;;;;10.20;5.50;;;;;;;;;;5090285;28;20032;-72
2022/01/12 10:00:37;;;;;;;16.58;4.63;;;;;;;;;;5066683;28;20048;-76
2022/01/12 10:03:41;;;;;;;11.13;5.22;;;;;;;;;;5078146;28;20051;-74
2022/01/12 10:06:50;;;;;;;13.90;4.97;;;;;;;;;;5090618;28;20058;-76
2022/01/12 10:10:05;;;;;;;13.57;5.63;;;;;;;;;;5092449;28;20040;-76
2022/01/12 10:13:22;;;;;;;18.92;5.47;;;;;;;;;;5093988;28;20042;-77
2022/01/12 10:16:27;;;;;;;12.82;5.57;;;;;;;;;;5094035;28;20043;-79
2022/01/12 10:19:32;;;;;;;13.00;5.43;;;;;;;;;;5081754;28;20039;-79
2022/01/12 10:22:37;;;;;;;14.73;5.75;;;;;;;;;;5099270;28;20046;-76
2022/01/12 10:25:46;;;;;;;9.10;5.00;;;;;;;;;;5093911;28;20036;-76
2022/01/12 10:29:01;;;;;;;11.70;5.20;;;;;;;;;;5081110;28;20052;-77
2022/01/12 10:32:08;;;;;;;11.48;5.82;;;;;;;;;;5081288;28;20046;-75
2022/01/12 10:35:12;;;;;;;14.88;6.20;;;;;;;;;;5093207;28;20054;-76
2022/01/12 10:38:18;;;;;;;15.50;5.57;;;;;;;;;;5080738;28;20059;-77
2022/01/12 10:41:22;;;;;;;15.88;5.13;;;;;;;;;;5068524;28;20059;-72
2022/01/12 10:44:31;;;;;;;12.68;5.45;;;;;;;;;;5080225;28;20055;-73
2022/01/12 10:47:35;;;;;;;9.10;4.53;;;;;;;;;;5092364;28;20043;-81
2022/01/12 10:50:39;;;;;;;11.40;4.90;;;;;;;;;;5080756;28;20036;-80
2022/01/12 10:53:44;;;;;;;10.45;4.65;;;;;;;;;;5057803;28;20506;-76
2022/01/12 10:56:48;;;;;;;12.82;5.65;;;;;;;;;;5069434;28;20043;-71
2022/01/12 11:00:00;;;;;;;12.77;4.60;;;;;;;;;;5069090;28;20040;-76
2022/01/12 11:03:06;;;;;;;10.57;5.00;;;;;;;;;;5093182;28;20036;-76
2022/01/12 11:06:11;;;;;;;9.98;4.38;;;;;;;;;;5093443;28;20040;-75
2022/01/12 11:09:17;;;;;;;12.50;5.05;;;;;;;;;;5093139;28;20043;-79
2022/01/12 11:12:21;;;;;;;9.63;4.30;;;;;;;;;;5069082;28;20036;-76
2022/01/12 11:15:26;;;;;;;9.18;4.70;;;;;;;;;;5068975;28;20052;-76
2022/01/12 11:18:31;;;;;;;13.10;4.65;;;;;;;;;;5080294;28;20037;-78
2022/01/12 11:21:44;;;;;;;12.70;4.82;;;;;;;;;;5080004;28;20044;-77
2022/01/12 11:24:48;;;;;;;9.38;4.18;;;;;;;;;;5080520;28;20045;-77
2022/01/12 11:28:13;;;;;;;11.32;4.80;;;;;;;;;;5092732;28;20392;-77
2022/01/12 11:31:22;;;;;;;11.90;5.22;;;;;;;;;;5092608;28;20056;-77
2022/01/12 11:34:26;;;;;;;11.23;5.60;;;;;;;;;;5093039;28;20423;-78
2022/01/12 11:37:30;;;;;;;15.55;5.00;;;;;;;;;;5057006;28;20036;-80
2022/01/12 11:40:43;;;;;;;10.00;4.88;;;;;;;;;;5092911;28;20032;-81
2022/01/12 11:43:50;;;;;;;12.23;4.75;;;;;;;;;;5080264;28;20040;-83
2022/01/12 11:46:55;;;;;;;8.93;4.80;;;;;;;;;;5079856;28;20089;-78
2022/01/12 11:49:59;;;;;;;9.68;5.03;;;;;;;;;;5092648;28;20377;-78
2022/01/12 11:53:04;;;;;;;11.15;4.68;;;;;;;;;;5091908;28;20472;-78
2022/01/12 11:56:16;;;;;;;13.77;4.95;;;;;;;;;;5067621;28;20146;-78
2022/01/12 11:59:20;;;;;;;17.88;6.30;;;;;;;;;;5091659;28;20395;-78
2022/01/12 12:02:41;;;;;;;11.55;4.20;;;;;;;;;;5079527;28;20522;-77
2022/01/12 12:05:45;;;;;;;9.38;4.80;;;;;;;;;;5079180;28;20047;-72
2022/01/12 12:09:00;;;;;;;11.90;5.30;;;;;;;;;;5091445;28;20040;-73
2022/01/12 12:12:12;;;;;;;14.70;5.05;;;;;;;;;;5079601;28;20032;-74
2022/01/12 12:15:16;;;;;;;20.50;7.38;;;;;;;;;;5091809;28;20222;-73
2022/01/12 12:18:21;;;;;;;11.13;4.63;;;;;;;;;;5091737;28;20040;-74
2022/01/12 12:21:25;;;;;;;9.57;4.65;;;;;;;;;;5092262;28;20361;-74
2022/01/12 12:24:30;;;;;;;9.43;4.82;;;;;;;;;;5091755;28;20040;-74
2022/01/12 12:27:35;;;;;;;9.25;5.13;;;;;;;;;;5079085;28;20047;-74
2022/01/12 12:30:39;;;;;;;17.50;5.45;;;;;;;;;;5092037;28;20039;-76
2022/01/12 12:33:44;;;;;;;11.43;4.82;;;;;;;;;;5089734;28;20446;-76
2022/01/12 12:36:56;;;;;;;9.95;4.55;;;;;;;;;;5090385;28;20031;-73
2022/01/12 12:40:11;;;;;;;10.13;5.35;;;;;;;;;;5077750;28;20040;-72
2022/01/12 12:43:22;;;;;;;13.10;4.20;;;;;;;;;;5076825;28;20214;-78
2022/01/12 12:46:26;;;;;;;9.13;4.70;;;;;;;;;;5090016;28;20035;-73
2022/01/12 12:49:31;;;;;;;7.80;4.50;;;;;;;;;;5090698;28;20048;-73
2022/01/12 12:52:38;;;;;;;13.00;4.80;;;;;;;;;;5091097;28;20047;-74
2022/01/12 12:55:43;;;;;;;8.40;4.38;;;;;;;;;;5091165;28;20045;-72
2022/01/12 12:58:51;;;;;;;7.25;3.60;;;;;;;;;;5078750;28;20036;-73
2022/01/12 13:01:55;;;;;;;8.63;4.57;;;;;;;;;;5091218;28;20040;-72
2022/01/12 13:05:04;;;;;;;7.22;4.00;;;;;;;;;;5091199;28;20036;-72
2022/01/12 13:08:08;;;;;;;7.95;3.95;;;;;;;;;;5067125;28;20044;-73
2022/01/12 13:11:13;;;;;;;9.65;4.00;;;;;;;;;;5090827;28;20040;-74
2022/01/12 13:14:17;;;;;;;10.25;3.78;;;;;;;;;;5078802;28;20048;-72
2022/01/12 13:17:26;;;;;;;9.23;3.65;;;;;;;;;;5091133;28;20048;-74
2022/01/12 13:23:57;;;;;;;9.00;4.22;;;;;;;;;;5091008;28;20048;-72
2022/01/12 13:27:02;;;;;;;9.38;4.10;;;;;;;;;;5091263;28;20044;-72
2022/01/12 13:30:07;;;;;;;12.55;4.43;;;;;;;;;;5078373;28;20044;-74
2022/01/12 13:33:11;;;;;;;13.98;4.28;;;;;;;;;;5066952;28;20047;-77
2022/01/12 13:36:15;;;;;;;13.10;3.83;;;;;;;;;;5090430;28;20028;-75
2022/01/12 13:39:20;;;;;;;12.70;4.93;;;;;;;;;;5078236;28;20048;-80
2022/01/12 13:42:24;;;;;;;10.18;4.28;;;;;;;;;;5066905;28;20047;-75
2022/01/12 13:45:41;;;;;;;14.27;5.07;;;;;;;;;;5081215;28;20365;-76
2022/01/12 13:49:05;;;;;;;12.45;6.60;;;;;;;;;;5070670;28;20047;-78
2022/01/12 13:52:09;;;;;;;18.25;6.45;;;;;;;;;;5094933;28;20044;-77
2022/01/12 13:55:14;;;;;;;12.52;4.50;;;;;;;;;;5094780;28;20503;-78
2022/01/12 13:58:18;;;;;;;11.23;4.93;;;;;;;;;;5082022;28;20395;-76
2022/01/12 14:01:29;;;;;;;14.63;4.63;;;;;;;;;;5082042;28;20036;-74
2022/01/12 14:04:48;;;;;;;22.07;7.00;;;;;;;;;;5059123;28;20040;-77
2022/01/12 14:08:01;;;;;;;8.82;4.60;;;;;;;;;;5081828;28;20475;-75
2022/01/12 14:11:05;;;;;;;18.52;5.57;;;;;;;;;;5094644;28;20044;-78
2022/01/12 14:14:09;;;;;;;11.43;6.03;;;;;;;;;;5082045;28;20364;-78
2022/01/12 14:17:26;;;;;;;10.10;4.45;;;;;;;;;;5094474;28;20501;-77
2022/01/12 14:20:36;;;;;;;12.82;6.43;;;;;;;;;;5081538;28;20126;-74
2022/01/12 14:23:43;;;;;;;11.57;5.75;;;;;;;;;;5093246;28;20044;-75
2022/01/12 14:26:47;;;;;;;12.02;4.75;;;;;;;;;;5079743;28;20399;-70
2022/01/12 14:29:51;;;;;;;12.98;4.88;;;;;;;;;;5057086;28;20048;-72
2022/01/12 14:32:56;;;;;;;8.80;3.33;;;;;;;;;;5080740;28;20036;-70
2022/01/12 14:36:00;;;;;;;9.07;4.28;;;;;;;;;;5092444;28;20040;-76
2022/01/12 14:39:05;;;;;;;7.45;4.07;;;;;;;;;;5093490;28;20044;-71
2022/01/12 14:42:11;;;;;;;8.32;4.00;;;;;;;;;;5080597;28;20032;-75
2022/01/12 14:45:22;;;;;;;7.10;3.03;;;;;;;;;;5091342;28;20032;-73
2022/01/12 14:48:28;;;;;;;6.05;3.67;;;;;;;;;;5092326;28;20044;-71
2022/01/12 14:51:34;;;;;;;8.57;3.45;;;;;;;;;;5092234;28;20036;-70
2022/01/12 14:54:39;;;;;;;7.38;3.85;;;;;;;;;;5093244;28;20553;-71
2022/01/12 14:57:43;;;;;;;11.68;3.95;;;;;;;;;;5080406;28;20040;-75
2022/01/12 15:00:48;;;;;;;14.75;3.58;;;;;;;;;;5093221;28;20047;-73
2022/01/12 15:03:53;;;;;;;11.82;5.43;;;;;;;;;;5080581;28;20028;-70
2022/01/12 15:06:57;;;;;;;9.55;4.82;;;;;;;;;;5093295;28;20038;-76
2022/01/12 15:10:02;;;;;;;7.43;3.88;;;;;;;;;;5068941;28;20040;-73
2022/01/12 15:16:19;;;;;;;7.88;4.55;;;;;;;;;;5080520;28;20028;-66
2022/01/12 15:19:23;;;;;;;5.85;3.95;;;;;;;;;;5093059;28;20048;-75
2022/01/12 15:22:28;;;;;;;11.52;4.78;;;;;;;;;;5093284;28;20040;-75
2022/01/12 15:25:32;;;;;;;11.00;4.90;;;;;;;;;;5080296;28;20039;-71
2022/01/12 15:28:37;;;;;;;11.30;5.47;;;;;;;;;;5092095;28;20048;-71
2022/01/12 15:31:41;;;;;;;15.32;4.65;;;;;;;;;;5079869;28;20106;-70
2022/01/12 15:34:45;;;;;;;9.57;4.35;;;;;;;;;;5079756;28;20051;-72
2022/01/12 15:37:50;;;;;;;10.45;5.40;;;;;;;;;;5079844;28;20056;-70
2022/01/12 15:40:54;;;;;;;12.40;5.82;;;;;;;;;;5092557;28;20044;-71
2022/01/12 15:43:58;;;;;;;9.73;5.70;;;;;;;;;;5079940;28;20062;-69
2022/01/12 15:47:03;;;;;;;11.38;5.03;;;;;;;;;;5091684;28;20032;-69
2022/01/12 15:50:08;;;;;;;15.88;5.90;;;;;;;;;;5092357;28;20056;-71
2022/01/12 15:53:12;;;;;;;16.15;5.85;;;;;;;;;;5092165;28;20051;-71
2022/01/12 15:56:18;;;;;;;16.33;7.43;;;;;;;;;;5091675;28;20044;-74
2022/01/12 15:59:23;;;;;;;11.02;5.72;;;;;;;;;;5091934;28;20384;-69
2022/01/12 16:02:27;;;;;;;19.67;7.82;;;;;;;;;;5091738;28;20036;-76
2022/01/12 16:05:31;;;;;;;16.55;7.45;;;;;;;;;;5079124;28;20049;-69
2022/01/12 16:08:36;;;;;;;13.30;6.03;;;;;;;;;;5091426;28;20032;-70
2022/01/12 16:11:41;;;;;;;20.63;8.27;;;;;;;;;;5079072;28;20032;-68
2022/01/12 16:14:46;;;;;;;17.92;8.00;;;;;;;;;;5091655;28;20494;-72
2022/01/12 16:17:51;;;;;;;18.73;8.00;;;;;;;;;;5079285;28;20039;-73
2022/01/12 16:20:58;;;;;;;13.70;6.57;;;;;;;;;;5091541;28;20043;-75
2022/01/12 16:24:03;;;;;;;21.98;10.60;;;;;;;;;;5091166;28;20043;-71
2022/01/12 16:27:09;;;;;;;19.85;8.70;;;;;;;;;;5090878;28;20514;-70
2022/01/12 16:30:17;;;;;;;16.95;8.00;;;;;;;;;;5091598;28;20443;-70
2022/01/12 16:33:22;;;;;;;15.30;7.22;;;;;;;;;;5091736;28;20047;-72
2022/01/12 16:36:28;;;;;;;14.82;5.72;;;;;;;;;;5091220;28;20040;-71
2022/01/12 16:39:33;;;;;;;15.23;6.03;;;;;;;;;;5051115;28;20053;-74
2022/01/12 16:42:37;;;;;;;15.77;6.85;;;;;;;;;;5050788;28;20037;-72
2022/01/12 16:45:42;;;;;;;16.08;6.93;;;;;;;;;;5049949;28;20041;-72
2022/01/12 16:48:47;;;;;;;14.95;5.60;;;;;;;;;;5051075;28;20060;-71
2022/01/12 16:51:53;;;;;;;40.55;17.67;;;;;;;;;;5050844;28;20046;-71
2022/01/12 16:54:57;;;;;;;25.10;13.35;;;;;;;;;;5049955;28;20508;-70
2022/01/12 16:58:02;;;;;;;14.50;6.72;;;;;;;;;;5049598;28;20048;-70
2022/01/12 17:01:08;;;;;;;15.27;7.65;;;;;;;;;;5050549;28;20493;-68
2022/01/12 17:04:12;;;;;;;24.52;7.78;;;;;;;;;;5038518;28;20673;-69
2022/01/12 17:07:17;;;;;;;26.63;10.85;;;;;;;;;;5050810;28;20041;-69
2022/01/12 17:10:21;;;;;;;11.73;6.47;;;;;;;;;;5050410;28;20056;-70
2022/01/12 17:13:25;;;;;;;14.07;6.55;;;;;;;;;;5050626;28;20033;-71
2022/01/12 17:16:40;;;;;;;15.35;6.82;;;;;;;;;;5050618;28;20048;-72
2022/01/12 17:19:46;;;;;;;11.93;5.78;;;;;;;;;;5039655;28;20299;-73
2022/01/12 17:22:50;;;;;;;14.38;6.60;;;;;;;;;;5053896;28;20048;-71
2022/01/12 17:25:54;;;;;;;16.80;7.70;;;;;;;;;;5042257;28;20037;-71
2022/01/12 17:28:58;;;;;;;12.70;6.10;;;;;;;;;;5054599;28;20048;-68
2022/01/12 17:32:03;;;;;;;19.77;10.10;;;;;;;;;;5054555;28;20044;-70
2022/01/12 17:35:08;;;;;;;18.17;8.85;;;;;;;;;;5053597;28;20044;-73
2022/01/12 17:38:12;;;;;;;10.60;6.30;;;;;;;;;;5077216;28;20048;-72
2022/01/12 17:41:17;;;;;;;14.57;7.68;;;;;;;;;;5094089;28;20035;-72
2022/01/12 17:44:22;;;;;;;15.60;7.07;;;;;;;;;;5094393;28;20040;-70
2022/01/12 17:47:28;;;;;;;14.77;5.93;;;;;;;;;;5081385;28;20047;-71
2022/01/12 17:50:35;;;;;;;13.70;6.80;;;;;;;;;;5094382;28;20036;-70
2022/01/12 17:53:39;;;;;;;15.52;6.50;;;;;;;;;;5094467;28;20036;-69
2022/01/12 17:56:44;;;;;;;17.90;8.32;;;;;;;;;;5094234;28;20046;-70
2022/01/12 17:59:48;;;;;;;20.20;7.78;;;;;;;;;;5081552;28;20044;-73
2022/01/12 18:02:53;;;;;;;19.45;9.68;;;;;;;;;;5093792;28;20401;-71
2022/01/12 18:05:58;;;;;;;18.80;8.57;;;;;;;;;;5080666;28;20035;-72
2022/01/12 18:09:04;;;;;;;23.98;10.77;;;;;;;;;;5080900;28;20083;-76
2022/01/12 18:12:11;;;;;;;18.08;7.10;;;;;;;;;;5081317;28;20067;-74
2022/01/12 18:15:16;;;;;;;18.33;7.38;;;;;;;;;;5093624;28;20040;-70
2022/01/12 18:18:20;;;;;;;14.77;5.93;;;;;;;;;;5093796;28;20044;-70
2022/01/12 18:21:25;;;;;;;12.55;6.07;;;;;;;;;;5092968;28;20052;-70
2022/01/12 18:24:29;;;;;;;13.05;6.95;;;;;;;;;;5080960;28;20044;-70
2022/01/12 18:27:34;;;;;;;13.07;6.55;;;;;;;;;;5093820;28;20036;-70
2022/01/12 18:30:38;;;;;;;10.55;6.78;;;;;;;;;;5080814;28;20048;-70
2022/01/12 18:33:43;;;;;;;12.05;6.30;;;;;;;;;;5093203;28;20058;-70
2022/01/12 18:36:48;;;;;;;18.98;5.53;;;;;;;;;;5093374;28;20052;-70
2022/01/12 18:39:54;;;;;;;14.75;5.25;;;;;;;;;;5093575;28;20044;-70
2022/01/12 18:42:58;;;;;;;9.05;4.72;;;;;;;;;;5093302;28;20044;-70
2022/01/12 18:46:04;;;;;;;12.05;4.70;;;;;;;;;;5080858;28;20024;-71
2022/01/12 18:49:08;;;;;;;8.70;4.55;;;;;;;;;;5093309;28;20052;-70
2022/01/12 18:52:13;;;;;;;12.45;4.25;;;;;;;;;;5080621;28;20036;-70
2022/01/12 18:55:17;;;;;;;7.32;3.70;;;;;;;;;;5092810;28;20171;-70
2022/01/12 18:58:21;;;;;;;11.05;4.72;;;;;;;;;;5080353;28;20036;-70
2022/01/12 19:01:26;;;;;;;12.25;4.95;;;;;;;;;;5092654;28;20028;-71
2022/01/12 19:04:31;;;;;;;18.80;6.95;;;;;;;;;;5080023;28;20040;-71
2022/01/12 19:07:35;;;;;;;18.23;5.40;;;;;;;;;;5080343;28;20043;-71
2022/01/12 19:10:39;;;;;;;14.07;5.28;;;;;;;;;;5093070;28;20055;-70
2022/01/12 19:13:48;;;;;;;10.70;5.45;;;;;;;;;;5080161;28;20394;-71
2022/01/12 19:16:52;;;;;;;13.93;6.35;;;;;;;;;;5092500;28;20047;-71
2022/01/12 19:19:57;;;;;;;12.35;6.00;;;;;;;;;;5092924;28;20040;-71
2022/01/12 19:23:01;;;;;;;12.93;5.88;;;;;;;;;;5079240;28;20055;-71
2022/01/12 19:26:06;;;;;;;16.17;6.03;;;;;;;;;;5092451;28;20043;-71
2022/01/12 19:29:11;;;;;;;9.40;4.82;;;;;;;;;;5092110;28;20048;-71
2022/01/12 19:32:19;;;;;;;28.95;13.73;;;;;;;;;;5092221;28;20040;-70
2022/01/12 19:35:23;;;;;;;16.40;6.13;;;;;;;;;;5091906;28;20055;-70
2022/01/12 19:38:27;;;;;;;26.90;14.77;;;;;;;;;;5078937;28;20052;-70
2022/01/12 19:41:31;;;;;;;15.70;8.02;;;;;;;;;;5079172;28;20395;-70
2022/01/12 19:44:36;;;;;;;14.60;7.05;;;;;;;;;;5080072;28;20044;-70
2022/01/12 19:47:41;;;;;;;16.88;7.18;;;;;;;;;;5080056;28;20047;-70